createdAt,value
2019-04-16T00:00:18.213Z,8.73
2019-04-16T00:01:18.189Z,8.61
2019-04-16T00:02:18.741Z,8.83
2019-04-16T00:03:20.332Z,8.71
2019-04-16T00:04:18.171Z,8.60
2019-04-16T00:05:18.134Z,8.76
2019-04-16T00:06:18.136Z,8.73
2019-04-16T00:07:18.117Z,8.64
2019-04-16T00:08:27.710Z,8.78
2019-04-16T00:09:18.124Z,8.71
2019-04-16T00:10:18.088Z,8.80
2019-04-16T00:11:18.079Z,8.80
2019-04-16T00:12:18.058Z,8.80
2019-04-16T00:13:18.115Z,8.78
2019-04-16T00:14:18.067Z,8.76
2019-04-16T00:15:18.039Z,8.63
2019-04-16T00:16:18.018Z,8.68
2019-04-16T00:17:18.011Z,8.61
2019-04-16T00:18:18.755Z,8.75
2019-04-16T00:19:18.007Z,8.61
2019-04-16T00:20:17.980Z,8.67
2019-04-16T00:21:17.970Z,8.65
2019-04-16T00:22:17.955Z,8.61
2019-04-16T00:23:17.938Z,8.67
2019-04-16T00:24:19.214Z,8.65
2019-04-16T00:25:17.916Z,8.64
2019-04-16T00:26:17.911Z,8.60
2019-04-16T00:27:17.901Z,8.61
2019-04-16T00:28:17.895Z,8.57
2019-04-16T00:29:17.887Z,8.54
2019-04-16T00:30:17.859Z,8.54
2019-04-16T00:31:17.860Z,8.52
2019-04-16T00:32:17.848Z,8.61
2019-04-16T00:33:17.841Z,8.47
2019-04-16T00:34:17.848Z,8.54
2019-04-16T00:35:17.807Z,8.57
2019-04-16T00:36:18.752Z,8.58
2019-04-16T00:37:20.265Z,8.47
2019-04-16T00:38:22.456Z,8.58
2019-04-16T00:39:17.789Z,8.60
2019-04-16T00:40:17.761Z,8.61
2019-04-16T00:41:17.779Z,8.65
2019-04-16T00:42:18.579Z,8.60
2019-04-16T00:43:17.730Z,8.50
2019-04-16T00:44:17.739Z,8.46
2019-04-16T00:45:17.704Z,8.40
2019-04-16T00:46:17.701Z,8.52
2019-04-16T00:47:17.690Z,8.40
2019-04-16T00:48:17.668Z,8.57
2019-04-16T00:49:17.663Z,8.46
2019-04-16T00:50:17.655Z,8.40
2019-04-16T00:51:17.647Z,8.55
2019-04-16T00:52:17.634Z,8.47
2019-04-16T00:53:17.617Z,8.46
2019-04-16T00:54:17.602Z,8.37
2019-04-16T00:55:17.601Z,8.34
2019-04-16T00:56:17.574Z,8.27
2019-04-16T00:57:18.179Z,8.27
2019-04-16T00:58:19.825Z,8.21
2019-04-16T00:59:17.539Z,8.21
2019-04-16T01:00:17.546Z,8.14
2019-04-16T01:01:17.520Z,8.18
2019-04-16T01:02:17.515Z,8.18
2019-04-16T01:04:26.728Z,8.17
2019-04-16T01:05:27.686Z,8.20
2019-04-16T01:06:27.670Z,8.13
2019-04-16T01:07:27.650Z,8.07
2019-04-16T01:08:27.644Z,8.18
2019-04-16T01:09:27.647Z,8.09
2019-04-16T01:10:27.628Z,8.09
2019-04-16T01:11:27.617Z,8.02
2019-04-16T01:12:27.612Z,7.96
2019-04-16T01:13:28.447Z,8.06
2019-04-16T01:14:27.599Z,8.06
2019-04-16T01:15:29.203Z,7.99
2019-04-16T01:16:27.564Z,8.03
2019-04-16T01:17:27.552Z,7.89
2019-04-16T01:18:27.544Z,7.96
2019-04-16T01:19:27.523Z,8.00
2019-04-16T01:20:27.546Z,7.95
2019-04-16T01:21:27.513Z,7.99
2019-04-16T01:22:27.498Z,7.91
2019-04-16T01:23:27.494Z,8.00
2019-04-16T01:24:27.486Z,7.91
2019-04-16T01:25:27.491Z,8.00
2019-04-16T01:26:27.626Z,8.06
2019-04-16T01:27:28.789Z,8.03
2019-04-16T01:28:29.359Z,7.99
2019-04-16T01:29:27.428Z,7.85
2019-04-16T01:30:27.456Z,7.95
2019-04-16T01:31:27.404Z,7.99
2019-04-16T01:32:27.406Z,7.92
2019-04-16T01:33:27.375Z,8.00
2019-04-16T01:34:27.369Z,7.92
2019-04-16T01:35:27.363Z,7.92
2019-04-16T01:36:27.336Z,7.91
2019-04-16T01:37:27.338Z,7.89
2019-04-16T01:38:28.039Z,7.94
2019-04-16T01:39:27.320Z,7.89
2019-04-16T01:40:27.328Z,7.84
2019-04-16T01:41:27.286Z,7.82
2019-04-16T01:42:27.270Z,7.92
2019-04-16T01:43:27.271Z,7.86
2019-04-16T01:44:29.421Z,7.96
2019-04-16T01:45:29.722Z,7.91
2019-04-16T01:46:27.232Z,7.88
2019-04-16T01:47:27.214Z,7.96
2019-04-16T01:48:27.214Z,7.88
2019-04-16T01:49:27.195Z,7.91
2019-04-16T01:50:27.203Z,7.95
2019-04-16T01:51:27.186Z,7.99
2019-04-16T01:52:27.167Z,7.89
2019-04-16T01:53:27.164Z,7.95
2019-04-16T01:54:27.146Z,8.00
2019-04-16T01:55:27.149Z,7.95
2019-04-16T01:56:28.905Z,7.99
2019-04-16T01:57:28.406Z,8.00
2019-04-16T01:58:27.095Z,7.92
2019-04-16T01:59:27.101Z,7.91
2019-04-16T02:00:27.094Z,7.73
2019-04-16T02:01:27.071Z,7.71
2019-04-16T02:02:27.062Z,7.70
2019-04-16T02:03:27.049Z,7.74
2019-04-16T02:04:27.041Z,7.81
2019-04-16T02:05:27.059Z,7.85
2019-04-16T02:06:27.186Z,7.76
2019-04-16T02:07:27.912Z,7.62
2019-04-16T02:08:28.293Z,7.70
2019-04-16T02:09:26.981Z,7.70
2019-04-16T02:10:26.991Z,7.69
2019-04-16T02:11:26.959Z,7.57
2019-04-16T02:12:26.955Z,7.57
2019-04-16T02:13:26.938Z,7.54
2019-04-16T02:14:26.925Z,7.54
2019-04-16T02:15:26.964Z,7.66
2019-04-16T02:16:26.931Z,7.67
2019-04-16T02:17:27.737Z,7.54
2019-04-16T02:18:29.439Z,7.67
2019-04-16T02:19:26.881Z,7.69
2019-04-16T02:20:26.869Z,7.67
2019-04-16T02:21:26.869Z,7.67
2019-04-16T02:22:26.835Z,7.71
2019-04-16T02:23:26.832Z,7.67
2019-04-16T02:24:26.818Z,7.70
2019-04-16T02:25:26.822Z,7.55
2019-04-16T02:26:26.819Z,7.51
2019-04-16T02:27:27.097Z,7.50
2019-04-16T02:28:28.293Z,7.45
2019-04-16T02:29:29.752Z,7.47
2019-04-16T02:30:26.750Z,7.30
2019-04-16T02:31:26.765Z,7.50
2019-04-16T02:32:26.744Z,7.42
2019-04-16T02:33:26.735Z,7.44
2019-04-16T02:34:26.719Z,7.45
2019-04-16T02:35:26.700Z,7.47
2019-04-16T02:36:26.704Z,7.39
2019-04-16T02:37:26.730Z,7.34
2019-04-16T02:38:26.676Z,7.30
2019-04-16T02:39:46.527Z,7.36
2019-04-16T02:40:26.647Z,7.47
2019-04-16T02:41:26.675Z,7.47
2019-04-16T02:42:30.470Z,7.41
2019-04-16T02:43:26.611Z,7.50
2019-04-16T02:44:26.608Z,7.44
2019-04-16T02:45:26.598Z,7.50
2019-04-16T02:46:30.556Z,7.58
2019-04-16T02:47:26.562Z,7.52
2019-04-16T02:48:26.577Z,7.60
2019-04-16T02:49:26.558Z,7.52
2019-04-16T02:50:30.254Z,7.45
2019-04-16T02:51:26.541Z,7.48
2019-04-16T02:52:26.510Z,7.44
2019-04-16T02:53:26.520Z,7.45
2019-04-16T02:54:32.515Z,7.48
2019-04-16T02:55:26.488Z,7.33
2019-04-16T02:56:26.496Z,7.47
2019-04-16T02:57:27.881Z,7.29
2019-04-16T02:58:26.440Z,7.33
2019-04-16T02:59:26.434Z,7.30
2019-04-16T03:00:26.434Z,7.42
2019-04-16T03:01:26.438Z,7.37
2019-04-16T03:02:26.404Z,7.42
2019-04-16T03:03:26.395Z,7.45
2019-04-16T03:05:35.636Z,7.33
2019-04-16T03:06:36.572Z,7.39
2019-04-16T03:07:36.546Z,7.36
2019-04-16T03:08:36.933Z,7.32
2019-04-16T03:09:39.760Z,7.29
2019-04-16T03:10:36.632Z,7.37
2019-04-16T03:11:36.529Z,7.33
2019-04-16T03:12:36.503Z,7.36
2019-04-16T03:13:36.488Z,7.29
2019-04-16T03:14:36.476Z,7.32
2019-04-16T03:15:36.465Z,7.30
2019-04-16T03:16:38.097Z,7.36
2019-04-16T03:17:36.462Z,7.34
2019-04-16T03:18:36.440Z,7.29
2019-04-16T03:19:38.883Z,7.30
2019-04-16T03:20:36.417Z,7.30
2019-04-16T03:21:36.407Z,7.39
2019-04-16T03:22:36.409Z,7.33
2019-04-16T03:23:37.539Z,7.33
2019-04-16T03:24:37.497Z,7.33
2019-04-16T03:25:36.352Z,7.30
2019-04-16T03:26:36.344Z,7.30
2019-04-16T03:27:36.350Z,7.15
2019-04-16T03:28:36.320Z,7.16
2019-04-16T03:29:36.314Z,7.14
2019-04-16T03:30:42.267Z,7.19
2019-04-16T03:31:36.300Z,7.19
2019-04-16T03:32:36.477Z,7.19
2019-04-16T03:33:36.290Z,7.15
2019-04-16T03:34:36.269Z,7.15
2019-04-16T03:35:36.269Z,7.09
2019-04-16T03:36:36.234Z,7.11
2019-04-16T03:37:36.259Z,7.05
2019-04-16T03:38:37.448Z,7.11
2019-04-16T03:39:36.220Z,7.08
2019-04-16T03:40:36.199Z,7.09
2019-04-16T03:41:36.188Z,7.07
2019-04-16T03:42:36.199Z,7.04
2019-04-16T03:43:36.162Z,7.09
2019-04-16T03:44:37.330Z,7.07
2019-04-16T03:45:37.581Z,7.09
2019-04-16T03:46:36.134Z,7.07
2019-04-16T03:47:36.141Z,7.00
2019-04-16T03:48:36.125Z,7.00
2019-04-16T03:49:36.106Z,6.93
2019-04-16T03:50:36.088Z,6.94
2019-04-16T03:51:36.831Z,7.04
2019-04-16T03:52:37.426Z,6.99
2019-04-16T03:53:36.826Z,6.96
2019-04-16T03:54:36.056Z,6.89
2019-04-16T03:55:36.038Z,6.89
2019-04-16T03:56:36.032Z,6.89
2019-04-16T03:57:36.010Z,6.81
2019-04-16T03:58:38.537Z,6.89
2019-04-16T03:59:36.012Z,6.81
2019-04-16T04:00:35.977Z,6.79
2019-04-16T04:01:35.971Z,6.82
2019-04-16T04:02:35.966Z,6.64
2019-04-16T04:03:35.976Z,6.65
2019-04-16T04:04:35.948Z,6.65
2019-04-16T04:05:35.938Z,6.75
2019-04-16T04:06:36.515Z,6.63
2019-04-16T04:07:35.905Z,6.72
2019-04-16T04:08:35.921Z,6.68
2019-04-16T04:09:35.880Z,6.63
2019-04-16T04:10:37.055Z,6.73
2019-04-16T04:11:40.922Z,6.69
2019-04-16T04:12:35.859Z,6.79
2019-04-16T04:13:35.871Z,6.65
2019-04-16T04:14:35.831Z,6.71
2019-04-16T04:15:35.819Z,6.60
2019-04-16T04:16:35.824Z,6.60
2019-04-16T04:17:38.727Z,6.55
2019-04-16T04:18:35.812Z,6.58
2019-04-16T04:19:35.784Z,6.57
2019-04-16T04:20:35.772Z,6.61
2019-04-16T04:21:35.756Z,6.60
2019-04-16T04:22:35.753Z,6.48
2019-04-16T04:23:35.759Z,6.55
2019-04-16T04:24:35.736Z,6.51
2019-04-16T04:25:36.427Z,6.55
2019-04-16T04:26:41.220Z,6.55
2019-04-16T04:27:35.693Z,6.53
2019-04-16T04:28:35.703Z,6.48
2019-04-16T04:29:35.685Z,6.51
2019-04-16T04:30:35.661Z,6.55
2019-04-16T04:31:35.658Z,6.53
2019-04-16T04:32:36.294Z,6.46
2019-04-16T04:33:40.638Z,6.46
2019-04-16T04:34:35.621Z,6.46
2019-04-16T04:35:35.603Z,6.45
2019-04-16T04:36:35.608Z,6.53
2019-04-16T04:37:35.592Z,6.51
2019-04-16T04:38:37.439Z,6.51
2019-04-16T04:39:35.591Z,6.51
2019-04-16T04:40:44.477Z,6.50
2019-04-16T04:41:35.543Z,6.46
2019-04-16T04:42:35.529Z,6.48
2019-04-16T04:43:35.539Z,6.35
2019-04-16T04:44:36.913Z,6.36
2019-04-16T04:45:37.610Z,6.40
2019-04-16T04:46:35.484Z,6.43
2019-04-16T04:47:35.485Z,6.32
2019-04-16T04:48:35.488Z,6.48
2019-04-16T04:49:35.474Z,6.38
2019-04-16T04:50:36.076Z,6.39
2019-04-16T04:51:36.418Z,6.48
2019-04-16T04:52:35.427Z,6.42
2019-04-16T04:53:35.414Z,6.32
2019-04-16T04:54:35.427Z,6.32
2019-04-16T04:55:35.395Z,6.36
2019-04-16T04:56:35.387Z,6.40
2019-04-16T04:57:35.370Z,6.39
2019-04-16T04:58:35.372Z,6.45
2019-04-16T04:59:36.763Z,6.43
2019-04-16T05:00:37.486Z,6.43
2019-04-16T05:01:35.333Z,6.57
2019-04-16T05:02:35.339Z,6.45
2019-04-16T05:03:35.308Z,6.46
2019-04-16T05:04:35.312Z,6.43
2019-04-16T05:06:44.507Z,6.53
2019-04-16T05:07:45.496Z,6.53
2019-04-16T05:08:45.484Z,6.53
2019-04-16T05:09:45.485Z,6.48
2019-04-16T05:10:58.409Z,6.48
2019-04-16T05:11:48.373Z,6.48
2019-04-16T05:12:45.439Z,6.48
2019-04-16T05:13:45.426Z,6.42
2019-04-16T05:14:45.426Z,6.45
2019-04-16T05:15:45.399Z,6.40
2019-04-16T05:16:45.394Z,6.43
2019-04-16T05:17:46.227Z,6.46
2019-04-16T05:18:45.368Z,6.45
2019-04-16T05:19:45.379Z,6.53
2019-04-16T05:20:47.002Z,6.46
2019-04-16T05:21:49.732Z,6.55
2019-04-16T05:22:45.353Z,6.51
2019-04-16T05:23:45.317Z,6.51
2019-04-16T05:24:45.334Z,6.45
2019-04-16T05:25:45.322Z,6.46
2019-04-16T05:26:45.284Z,6.50
2019-04-16T05:27:45.281Z,6.53
2019-04-16T05:28:45.702Z,6.61
2019-04-16T05:29:48.344Z,6.53
2019-04-16T05:30:45.269Z,6.60
2019-04-16T05:31:45.237Z,6.58
2019-04-16T05:32:45.217Z,6.55
2019-04-16T05:33:45.235Z,6.64
2019-04-16T05:34:45.210Z,6.72
2019-04-16T05:35:45.205Z,6.81
2019-04-16T05:36:47.740Z,6.72
2019-04-16T05:37:45.171Z,6.81
2019-04-16T05:38:45.159Z,6.78
2019-04-16T05:39:45.139Z,6.93
2019-04-16T05:40:45.150Z,6.86
2019-04-16T05:41:45.128Z,6.99
2019-04-16T05:42:45.105Z,6.91
2019-04-16T05:43:45.103Z,7.01
2019-04-16T05:44:45.100Z,7.05
2019-04-16T05:45:45.110Z,7.15
2019-04-16T05:46:46.838Z,7.16
2019-04-16T05:47:48.709Z,7.26
2019-04-16T05:48:45.048Z,7.32
2019-04-16T05:49:45.040Z,7.39
2019-04-16T05:50:45.035Z,7.37
2019-04-16T05:51:45.003Z,7.45
2019-04-16T05:52:44.997Z,7.54
2019-04-16T05:53:45.007Z,7.54
2019-04-16T05:54:45.370Z,7.63
2019-04-16T05:55:49.663Z,7.69
2019-04-16T05:56:44.962Z,7.74
2019-04-16T05:57:44.937Z,7.82
2019-04-16T05:58:44.940Z,7.85
2019-04-16T05:59:44.923Z,7.99
2019-04-16T06:00:44.934Z,7.95
2019-04-16T06:01:45.446Z,7.95
2019-04-16T06:02:49.609Z,8.06
2019-04-16T06:03:44.878Z,7.99
2019-04-16T06:04:44.874Z,8.00
2019-04-16T06:05:44.875Z,8.00
2019-04-16T06:06:44.981Z,8.07
2019-04-16T06:07:44.840Z,8.13
2019-04-16T06:08:44.825Z,8.17
2019-04-16T06:09:45.350Z,8.25
2019-04-16T06:10:49.957Z,8.31
2019-04-16T06:11:44.788Z,8.34
2019-04-16T06:12:44.780Z,8.37
2019-04-16T06:13:45.244Z,8.42
2019-04-16T06:14:46.428Z,8.42
2019-04-16T06:15:44.760Z,8.43
2019-04-16T06:16:44.742Z,8.32
2019-04-16T06:17:44.728Z,8.45
2019-04-16T06:18:44.718Z,8.49
2019-04-16T06:19:46.817Z,8.58
2019-04-16T06:20:53.026Z,8.70
2019-04-16T06:21:44.671Z,8.61
2019-04-16T06:22:44.668Z,8.75
2019-04-16T06:23:44.652Z,8.73
2019-04-16T06:24:44.645Z,8.78
2019-04-16T06:25:44.759Z,8.78
2019-04-16T06:26:47.528Z,8.89
2019-04-16T06:27:44.617Z,8.91
2019-04-16T06:28:44.608Z,9.12
2019-04-16T06:29:47.047Z,9.13
2019-04-16T06:30:44.602Z,9.06
2019-04-16T06:31:44.568Z,9.20
2019-04-16T06:32:44.558Z,9.19
2019-04-16T06:33:44.555Z,9.38
2019-04-16T06:34:44.618Z,9.42
2019-04-16T06:35:44.537Z,9.42
2019-04-16T06:36:44.520Z,9.50
2019-04-16T06:37:45.757Z,9.58
2019-04-16T06:38:44.502Z,9.56
2019-04-16T06:39:44.491Z,9.62
2019-04-16T06:40:44.496Z,9.77
2019-04-16T06:41:47.822Z,9.81
2019-04-16T06:42:44.447Z,9.70
2019-04-16T06:43:44.444Z,9.71
2019-04-16T06:44:44.450Z,9.68
2019-04-16T06:45:44.425Z,9.75
2019-04-16T06:46:45.231Z,9.78
2019-04-16T06:47:44.406Z,9.78
2019-04-16T06:48:45.983Z,9.91
2019-04-16T06:49:44.372Z,9.89
2019-04-16T06:50:44.382Z,10.01
2019-04-16T06:51:44.756Z,10.02
2019-04-16T06:52:46.168Z,10.16
2019-04-16T06:53:44.332Z,10.16
2019-04-16T06:54:45.637Z,10.25
2019-04-16T06:55:44.325Z,10.24
2019-04-16T06:56:44.292Z,10.25
2019-04-16T06:57:44.292Z,10.36
2019-04-16T06:58:51.292Z,10.42
2019-04-16T06:59:44.265Z,10.54
2019-04-16T07:00:44.263Z,10.66
2019-04-16T07:01:44.258Z,10.63
2019-04-16T07:03:01.404Z,10.69
2019-04-16T07:03:44.218Z,10.69
2019-04-16T07:04:44.233Z,10.66
2019-04-16T07:05:44.188Z,10.76
2019-04-16T07:07:53.394Z,10.88
2019-04-16T07:08:54.353Z,10.95
2019-04-16T07:09:57.107Z,10.90
2019-04-16T07:10:54.343Z,11.03
2019-04-16T07:11:55.032Z,10.90
2019-04-16T07:12:54.422Z,11.03
2019-04-16T07:13:54.295Z,11.06
2019-04-16T07:14:54.291Z,11.19
2019-04-16T07:15:56.871Z,11.21
2019-04-16T07:16:54.317Z,11.11
2019-04-16T07:17:54.266Z,11.17
2019-04-16T07:18:54.370Z,11.26
2019-04-16T07:19:54.250Z,11.30
2019-04-16T07:20:54.235Z,11.31
2019-04-16T07:21:54.233Z,11.39
2019-04-16T07:22:54.212Z,11.46
2019-04-16T07:23:58.157Z,11.51
2019-04-16T07:24:54.266Z,11.54
2019-04-16T07:25:54.239Z,11.62
2019-04-16T07:26:56.327Z,11.62
2019-04-16T07:27:57.660Z,11.75
2019-04-16T07:28:58.534Z,11.88
2019-04-16T07:29:54.218Z,11.85
2019-04-16T07:30:54.153Z,11.97
2019-04-16T07:31:54.440Z,12.03
2019-04-16T07:32:54.105Z,12.15
2019-04-16T07:33:54.094Z,12.22
2019-04-16T07:34:54.071Z,12.36
2019-04-16T07:35:54.079Z,12.36
2019-04-16T07:36:56.594Z,12.23
2019-04-16T07:37:54.050Z,12.38
2019-04-16T07:38:54.038Z,12.33
2019-04-16T07:39:54.020Z,12.36
2019-04-16T07:40:54.101Z,12.34
2019-04-16T07:42:07.796Z,12.36
2019-04-16T07:42:57.904Z,12.37
2019-04-16T07:43:54.601Z,12.29
2019-04-16T07:44:55.523Z,12.31
2019-04-16T07:45:53.958Z,12.40
2019-04-16T07:46:53.964Z,12.38
2019-04-16T07:47:53.936Z,12.66
2019-04-16T07:48:54.794Z,12.67
2019-04-16T07:49:55.953Z,12.74
2019-04-16T07:50:53.903Z,12.89
2019-04-16T07:51:53.906Z,12.99
2019-04-16T07:52:54.184Z,12.99
2019-04-16T07:53:53.888Z,13.17
2019-04-16T07:54:53.868Z,13.17
2019-04-16T07:55:53.844Z,13.10
2019-04-16T07:56:53.853Z,13.07
2019-04-16T07:57:53.839Z,13.10
2019-04-16T07:58:53.806Z,13.24
2019-04-16T07:59:53.801Z,13.41
2019-04-16T08:00:53.786Z,13.50
2019-04-16T08:01:53.783Z,13.55
2019-04-16T08:02:54.696Z,13.61
2019-04-16T08:03:57.460Z,13.47
2019-04-16T08:04:54.033Z,13.47
2019-04-16T08:05:53.737Z,13.50
2019-04-16T08:06:53.727Z,13.59
2019-04-16T08:07:53.818Z,13.44
2019-04-16T08:08:53.952Z,13.46
2019-04-16T08:09:53.726Z,13.72
2019-04-16T08:10:53.691Z,13.62
2019-04-16T08:11:53.667Z,13.66
2019-04-16T08:12:56.942Z,13.63
2019-04-16T08:13:53.656Z,13.73
2019-04-16T08:14:53.644Z,13.87
2019-04-16T08:15:56.547Z,13.84
2019-04-16T08:16:53.621Z,13.79
2019-04-16T08:17:53.625Z,13.87
2019-04-16T08:18:53.594Z,14.02
2019-04-16T08:19:55.270Z,14.02
2019-04-16T08:21:01.277Z,14.02
2019-04-16T08:21:53.562Z,13.81
2019-04-16T08:22:53.569Z,13.72
2019-04-16T08:23:53.562Z,13.47
2019-04-16T08:24:57.535Z,13.31
2019-04-16T08:26:02.795Z,13.47
2019-04-16T08:26:53.504Z,13.44
2019-04-16T08:27:54.273Z,13.43
2019-04-16T08:28:53.509Z,13.59
2019-04-16T08:29:53.478Z,13.80
2019-04-16T08:30:53.452Z,13.71
2019-04-16T08:31:53.459Z,13.90
2019-04-16T08:32:53.443Z,14.01
2019-04-16T08:33:53.715Z,14.11
2019-04-16T08:34:53.415Z,14.09
2019-04-16T08:35:53.419Z,14.19
2019-04-16T08:36:53.388Z,14.19
2019-04-16T08:37:53.388Z,14.20
2019-04-16T08:38:53.461Z,14.36
2019-04-16T08:39:53.354Z,14.36
2019-04-16T08:40:53.356Z,14.45
2019-04-16T08:41:53.340Z,14.17
2019-04-16T08:42:56.985Z,14.12
2019-04-16T08:43:53.333Z,14.27
2019-04-16T08:44:53.305Z,14.34
2019-04-16T08:45:53.307Z,14.46
2019-04-16T08:46:53.294Z,14.59
2019-04-16T08:47:53.279Z,14.78
2019-04-16T08:48:54.411Z,14.60
2019-04-16T08:49:54.284Z,14.60
2019-04-16T08:50:57.915Z,14.59
2019-04-16T08:51:53.225Z,14.72
2019-04-16T08:52:53.217Z,14.80
2019-04-16T08:53:53.220Z,14.67
2019-04-16T08:54:54.854Z,14.24
2019-04-16T08:55:53.189Z,14.23
2019-04-16T08:56:53.167Z,14.41
2019-04-16T08:57:53.168Z,14.63
2019-04-16T08:58:56.444Z,14.79
2019-04-16T08:59:53.146Z,15.00
2019-04-16T09:00:53.126Z,15.12
2019-04-16T09:01:54.518Z,14.85
2019-04-16T09:02:57.562Z,14.78
2019-04-16T09:03:53.183Z,14.79
2019-04-16T09:04:53.087Z,15.00
2019-04-16T09:05:53.151Z,15.03
2019-04-16T09:06:53.074Z,14.93
2019-04-16T09:09:12.710Z,14.64
2019-04-16T09:10:16.557Z,14.49
2019-04-16T09:11:04.420Z,14.82
2019-04-16T09:12:07.693Z,14.80
2019-04-16T09:13:04.986Z,14.86
2019-04-16T09:14:03.209Z,15.00
2019-04-16T09:15:03.178Z,15.05
2019-04-16T09:16:03.173Z,15.19
2019-04-16T09:17:03.151Z,15.07
2019-04-16T09:18:03.149Z,14.90
2019-04-16T09:19:03.147Z,15.12
2019-04-16T09:20:05.652Z,15.22
2019-04-16T09:21:03.106Z,14.94
2019-04-16T09:22:03.096Z,15.03
2019-04-16T09:23:03.084Z,15.19
2019-04-16T09:24:08.573Z,15.20
2019-04-16T09:25:03.057Z,15.35
2019-04-16T09:26:12.978Z,15.49
2019-04-16T09:27:03.048Z,15.68
2019-04-16T09:28:03.028Z,15.88
2019-04-16T09:29:08.157Z,16.01
2019-04-16T09:30:03.014Z,15.86
2019-04-16T09:31:02.995Z,15.48
2019-04-16T09:32:02.985Z,15.48
2019-04-16T09:33:02.976Z,15.33
2019-04-16T09:34:06.385Z,15.16
2019-04-16T09:35:09.745Z,15.25
2019-04-16T09:36:02.943Z,15.35
2019-04-16T09:37:02.936Z,15.35
2019-04-16T09:38:02.922Z,15.34
2019-04-16T09:39:03.105Z,15.44
2019-04-16T09:40:15.973Z,15.60
2019-04-16T09:41:02.907Z,15.71
2019-04-16T09:42:02.882Z,15.66
2019-04-16T09:43:15.753Z,15.77
2019-04-16T09:44:02.856Z,15.80
2019-04-16T09:45:05.137Z,15.89
2019-04-16T09:46:10.142Z,15.89
2019-04-16T09:47:05.147Z,16.06
2019-04-16T09:48:03.938Z,16.33
2019-04-16T09:49:04.941Z,16.27
2019-04-16T09:50:02.819Z,16.17
2019-04-16T09:51:02.781Z,16.33
2019-04-16T09:52:03.968Z,16.41
2019-04-16T09:53:02.754Z,16.41
2019-04-16T09:54:02.747Z,16.59
2019-04-16T09:55:02.745Z,16.44
2019-04-16T09:56:02.718Z,16.55
2019-04-16T09:57:02.718Z,16.54
2019-04-16T09:58:06.054Z,16.32
2019-04-16T09:59:02.692Z,16.07
2019-04-16T10:00:02.743Z,16.13
2019-04-16T10:01:02.669Z,16.13
2019-04-16T10:02:02.672Z,16.10
2019-04-16T10:03:02.652Z,15.86
2019-04-16T10:04:02.636Z,16.06
2019-04-16T10:05:02.643Z,16.17
2019-04-16T10:06:05.381Z,16.18
2019-04-16T10:07:02.601Z,16.30
2019-04-16T10:08:02.607Z,16.44
2019-04-16T10:09:02.586Z,16.18
2019-04-16T10:10:02.593Z,16.07
2019-04-16T10:11:05.836Z,16.06
2019-04-16T10:12:04.972Z,16.26
2019-04-16T10:13:02.553Z,16.63
2019-04-16T10:14:02.526Z,16.63
2019-04-16T10:15:02.585Z,16.65
2019-04-16T10:16:02.525Z,16.75
2019-04-16T10:17:02.505Z,16.78
2019-04-16T10:18:02.531Z,16.52
2019-04-16T10:19:07.664Z,16.36
2019-04-16T10:20:02.553Z,16.48
2019-04-16T10:21:02.470Z,16.47
2019-04-16T10:22:02.463Z,16.70
2019-04-16T10:23:02.437Z,16.84
2019-04-16T10:24:02.412Z,16.85
2019-04-16T10:25:02.414Z,16.80
2019-04-16T10:26:02.402Z,16.90
2019-04-16T10:27:04.318Z,16.96
2019-04-16T10:28:04.932Z,17.07
2019-04-16T10:29:02.407Z,17.03
2019-04-16T10:30:02.367Z,17.03
2019-04-16T10:31:02.371Z,16.91
2019-04-16T10:32:02.334Z,16.91
2019-04-16T10:33:02.311Z,17.12
2019-04-16T10:34:02.307Z,17.36
2019-04-16T10:35:02.297Z,17.24
2019-04-16T10:36:04.638Z,17.32
2019-04-16T10:37:02.329Z,17.27
2019-04-16T10:38:02.254Z,17.07
2019-04-16T10:39:02.334Z,17.10
2019-04-16T10:40:04.814Z,16.99
2019-04-16T10:41:02.254Z,17.07
2019-04-16T10:42:02.213Z,17.15
2019-04-16T10:43:02.204Z,17.35
2019-04-16T10:44:02.220Z,17.30
2019-04-16T10:45:02.208Z,17.02
2019-04-16T10:46:02.195Z,16.85
2019-04-16T10:47:02.157Z,16.98
2019-04-16T10:48:02.167Z,17.00
2019-04-16T10:49:02.127Z,17.24
2019-04-16T10:50:02.129Z,17.32
2019-04-16T10:51:02.128Z,17.39
2019-04-16T10:52:02.138Z,17.55
2019-04-16T10:53:02.088Z,17.02
2019-04-16T10:54:02.079Z,16.99
2019-04-16T10:55:02.075Z,17.36
2019-04-16T10:56:02.107Z,17.43
2019-04-16T10:57:02.052Z,17.51
2019-04-16T10:58:02.057Z,17.70
2019-04-16T10:59:02.031Z,17.74
2019-04-16T11:00:02.072Z,17.77
2019-04-16T11:01:02.012Z,17.45
2019-04-16T11:02:01.987Z,17.15
2019-04-16T11:03:02.011Z,16.99
2019-04-16T11:04:04.880Z,17.27
2019-04-16T11:05:03.145Z,17.45
2019-04-16T11:06:01.973Z,17.54
2019-04-16T11:07:01.949Z,17.53
2019-04-16T11:08:04.204Z,17.63
2019-04-16T11:10:11.959Z,17.58
2019-04-16T11:11:12.102Z,17.55
2019-04-16T11:12:12.072Z,17.77
2019-04-16T11:13:12.066Z,17.65
2019-04-16T11:14:12.047Z,18.02
2019-04-16T11:15:12.070Z,17.84
2019-04-16T11:16:12.054Z,17.92
2019-04-16T11:17:12.025Z,17.96
2019-04-16T11:18:12.059Z,17.83
2019-04-16T11:19:11.993Z,17.74
2019-04-16T11:20:12.021Z,17.83
2019-04-16T11:21:12.031Z,17.76
2019-04-16T11:22:12.959Z,17.73
2019-04-16T11:23:11.989Z,17.81
2019-04-16T11:24:12.016Z,17.99
2019-04-16T11:25:11.965Z,17.83
2019-04-16T11:26:11.928Z,17.89
2019-04-16T11:27:11.928Z,17.83
2019-04-16T11:28:14.162Z,18.02
2019-04-16T11:29:12.155Z,18.28
2019-04-16T11:30:11.894Z,18.39
2019-04-16T11:31:11.866Z,18.53
2019-04-16T11:32:11.874Z,18.41
2019-04-16T11:33:11.943Z,18.51
2019-04-16T11:34:12.080Z,18.46
2019-04-16T11:35:13.024Z,18.13
2019-04-16T11:36:19.479Z,18.13
2019-04-16T11:37:11.847Z,18.09
2019-04-16T11:38:11.792Z,17.68
2019-04-16T11:39:11.777Z,17.89
2019-04-16T11:40:11.771Z,17.63
2019-04-16T11:41:11.747Z,17.73
2019-04-16T11:42:11.764Z,17.99
2019-04-16T11:43:11.761Z,18.04
2019-04-16T11:44:15.659Z,18.07
2019-04-16T11:45:11.905Z,18.29
2019-04-16T11:46:11.758Z,18.07
2019-04-16T11:47:11.711Z,18.01
2019-04-16T11:48:11.666Z,18.28
2019-04-16T11:49:11.717Z,18.19
2019-04-16T11:50:11.704Z,17.81
2019-04-16T11:51:11.674Z,17.65
2019-04-16T11:52:11.686Z,17.79
2019-04-16T11:53:11.698Z,17.84
2019-04-16T11:54:12.353Z,17.86
2019-04-16T11:55:11.599Z,18.01
2019-04-16T11:56:11.608Z,17.94
2019-04-16T11:57:13.310Z,17.79
2019-04-16T11:58:11.568Z,17.79
2019-04-16T11:59:11.561Z,18.04
2019-04-16T12:00:11.595Z,18.28
2019-04-16T12:01:11.530Z,18.07
2019-04-16T12:02:11.545Z,18.09
2019-04-16T12:03:11.524Z,18.01
2019-04-16T12:04:15.651Z,18.05
2019-04-16T12:05:11.509Z,18.25
2019-04-16T12:06:26.531Z,18.41
2019-04-16T12:07:11.661Z,18.07
2019-04-16T12:08:11.630Z,18.21
2019-04-16T12:09:11.468Z,18.29
2019-04-16T12:10:11.462Z,18.28
2019-04-16T12:11:11.539Z,18.50
2019-04-16T12:12:11.411Z,18.29
2019-04-16T12:13:11.448Z,17.96
2019-04-16T12:14:11.400Z,18.29
2019-04-16T12:15:11.621Z,18.34
2019-04-16T12:16:11.367Z,18.25
2019-04-16T12:17:11.372Z,18.32
2019-04-16T12:18:11.367Z,18.50
2019-04-16T12:19:11.352Z,18.72
2019-04-16T12:20:11.410Z,18.89
2019-04-16T12:21:11.347Z,18.65
2019-04-16T12:22:11.309Z,18.66
2019-04-16T12:23:11.323Z,18.71
2019-04-16T12:24:11.272Z,18.57
2019-04-16T12:25:11.259Z,18.41
2019-04-16T12:26:11.299Z,18.49
2019-04-16T12:27:11.318Z,18.74
2019-04-16T12:28:12.478Z,18.94
2019-04-16T12:29:11.252Z,19.10
2019-04-16T12:30:11.254Z,19.12
2019-04-16T12:31:11.245Z,18.99
2019-04-16T12:32:11.429Z,18.72
2019-04-16T12:33:14.029Z,18.93
2019-04-16T12:34:11.165Z,18.84
2019-04-16T12:35:11.164Z,18.78
2019-04-16T12:36:14.068Z,18.68
2019-04-16T12:37:11.179Z,18.74
2019-04-16T12:38:13.136Z,18.91
2019-04-16T12:39:11.275Z,19.06
2019-04-16T12:40:11.137Z,19.12
2019-04-16T12:41:11.079Z,19.17
2019-04-16T12:42:11.076Z,19.34
2019-04-16T12:43:14.659Z,19.13
2019-04-16T12:44:11.054Z,18.94
2019-04-16T12:45:11.086Z,18.71
2019-04-16T12:46:11.043Z,18.65
2019-04-16T12:47:11.031Z,18.57
2019-04-16T12:48:11.169Z,18.54
2019-04-16T12:49:11.006Z,18.65
2019-04-16T12:50:10.989Z,18.64
2019-04-16T12:51:11.168Z,18.69
2019-04-16T12:52:15.855Z,18.66
2019-04-16T12:53:11.007Z,18.57
2019-04-16T12:54:10.955Z,18.32
2019-04-16T12:55:11.082Z,18.11
2019-04-16T12:56:11.163Z,18.41
2019-04-16T12:57:14.940Z,18.74
2019-04-16T12:58:10.907Z,19.09
2019-04-16T12:59:10.907Z,18.90
2019-04-16T13:00:10.871Z,18.64
2019-04-16T13:01:10.869Z,18.50
2019-04-16T13:02:13.413Z,18.41
2019-04-16T13:03:10.840Z,18.60
2019-04-16T13:04:10.845Z,18.84
2019-04-16T13:05:10.929Z,18.96
2019-04-16T13:06:10.836Z,19.07
2019-04-16T13:07:10.796Z,18.91
2019-04-16T13:08:10.950Z,18.74
2019-04-16T13:09:10.798Z,19.16
2019-04-16T13:11:20.332Z,19.42
2019-04-16T13:12:21.315Z,19.20
2019-04-16T13:13:21.307Z,18.97